Time;durP1;ratioP1;P1;durP2;ratioP2;P2;SDS_P1;SDS_P2;PMS_P1;PMS_P2;Temp;Humidity;BMP_temperature;BMP_pressure;BME280_temperature;BME280_humidity;BME280_pressure;Samples;Min_cycle;Max_cycle;Signal;HPM_P1;HPM_P2
2023/11/10 00:00:21;;;;;;;1999.90;999.90;;;;;;;;;;5081549;28;20385;-88
2023/11/10 00:02:48;;;;;;;1999.90;999.90;;;;;;;;;;5082554;28;20399;-88
2023/11/10 00:05:16;;;;;;;1999.90;999.90;;;;;;;;;;5079684;28;20060;-87
2023/11/10 00:07:44;;;;;;;1999.90;999.90;;;;;;;;;;5074989;28;20049;-88
2023/11/10 00:10:11;;;;;;;1999.90;999.90;;;;;;;;;;5078961;28;20151;-88
2023/11/10 00:12:39;;;;;;;1999.90;999.90;;;;;;;;;;5078244;28;20043;-88
2023/11/10 00:15:08;;;;;;;1999.90;999.90;;;;;;;;;;5077958;28;20416;-88
2023/11/10 00:17:35;;;;;;;1999.90;999.90;;;;;;;;;;5080706;28;20397;-88
2023/11/10 00:20:02;;;;;;;1999.90;999.90;;;;;;;;;;5080170;28;20063;-91
2023/11/10 00:22:30;;;;;;;1999.90;999.90;;;;;;;;;;5079004;28;20135;-89
2023/11/10 00:24:57;;;;;;;1999.90;999.90;;;;;;;;;;5079912;28;20044;-88
2023/11/10 00:27:23;;;;;;;1999.90;999.90;;;;;;;;;;5079189;28;20044;-89
2023/11/10 00:29:52;;;;;;;1999.90;999.90;;;;;;;;;;5077373;28;20244;-88
2023/11/10 00:32:18;;;;;;;1999.90;999.90;;;;;;;;;;5077754;28;20552;-88
2023/11/10 00:34:45;;;;;;;1999.90;999.90;;;;;;;;;;5078672;28;20071;-88
2023/11/10 00:37:11;;;;;;;1999.90;999.90;;;;;;;;;;5082205;28;20075;-88
2023/11/10 00:39:38;;;;;;;1999.90;999.90;;;;;;;;;;5078781;28;20048;-90
2023/11/10 00:42:05;;;;;;;1999.90;999.90;;;;;;;;;;5078083;28;20051;-88
2023/11/10 00:44:31;;;;;;;1999.90;999.90;;;;;;;;;;5073462;28;20052;-88
2023/11/10 00:47:00;;;;;;;1999.90;999.90;;;;;;;;;;5080552;28;20059;-88
2023/11/10 00:49:26;;;;;;;1999.90;999.90;;;;;;;;;;5079822;28;20390;-88
2023/11/10 00:51:53;;;;;;;1999.90;999.90;;;;;;;;;;5077781;28;20048;-89
2023/11/10 00:54:19;;;;;;;1999.90;999.90;;;;;;;;;;5078600;28;20048;-89
2023/11/10 00:56:46;;;;;;;1999.90;999.90;;;;;;;;;;5081593;28;20044;-87
2023/11/10 00:59:13;;;;;;;1999.90;999.90;;;;;;;;;;5077401;28;20048;-87
2023/11/10 01:01:39;;;;;;;1999.90;999.90;;;;;;;;;;5083160;28;20468;-89
2023/11/10 01:04:07;;;;;;;1999.90;999.90;;;;;;;;;;5080223;28;20060;-87
2023/11/10 01:06:34;;;;;;;1999.90;999.90;;;;;;;;;;5076858;28;20040;-88
2023/11/10 01:09:01;;;;;;;1999.90;999.90;;;;;;;;;;5082706;28;20543;-88
2023/11/10 01:11:27;;;;;;;1999.90;999.90;;;;;;;;;;5078792;28;20043;-88
2023/11/10 01:13:54;;;;;;;1999.90;999.90;;;;;;;;;;5075198;28;20127;-88
2023/11/10 01:16:20;;;;;;;1999.90;999.90;;;;;;;;;;5081098;28;20063;-88
2023/11/10 01:18:47;;;;;;;1999.90;999.90;;;;;;;;;;5077691;28;20041;-89
2023/11/10 01:21:15;;;;;;;1999.90;999.90;;;;;;;;;;5078963;28;20489;-88
2023/11/10 01:23:42;;;;;;;1999.90;999.90;;;;;;;;;;5080543;28;20048;-88
2023/11/10 01:26:08;;;;;;;1999.90;999.90;;;;;;;;;;5077450;28;20075;-88
2023/11/10 01:28:35;;;;;;;1999.90;999.90;;;;;;;;;;5076995;28;20596;-88
2023/11/10 01:31:03;;;;;;;1999.90;999.90;;;;;;;;;;5083534;28;20084;-87
2023/11/10 01:33:29;;;;;;;1999.90;999.90;;;;;;;;;;5079678;28;20371;-89
2023/11/10 01:35:55;;;;;;;1999.90;999.90;;;;;;;;;;5084584;28;20147;-89
2023/11/10 01:38:23;;;;;;;1999.90;999.90;;;;;;;;;;5082621;28;20135;-88
2023/11/10 01:40:50;;;;;;;1999.90;999.90;;;;;;;;;;5082653;28;20048;-89
2023/11/10 01:43:17;;;;;;;1999.90;999.90;;;;;;;;;;5087003;28;20075;-89
2023/11/10 01:45:44;;;;;;;1999.90;999.90;;;;;;;;;;5089364;28;20060;-88
2023/11/10 01:48:11;;;;;;;1999.90;999.90;;;;;;;;;;5081813;28;20077;-89
2023/11/10 01:50:39;;;;;;;1999.90;999.90;;;;;;;;;;5083459;28;20455;-90
2023/11/10 01:53:07;;;;;;;1999.90;999.90;;;;;;;;;;5081258;28;20496;-88
2023/11/10 01:55:36;;;;;;;1999.90;999.90;;;;;;;;;;5082076;28;20048;-88
2023/11/10 01:58:05;;;;;;;1999.90;999.90;;;;;;;;;;5083919;28;20463;-90
2023/11/10 02:00:31;;;;;;;1999.90;999.90;;;;;;;;;;5081752;28;20059;-89
2023/11/10 02:02:58;;;;;;;1999.90;999.90;;;;;;;;;;5081674;28;20040;-89
2023/11/10 02:05:25;;;;;;;1999.90;999.90;;;;;;;;;;5085548;28;20054;-88
2023/11/10 02:07:51;;;;;;;1999.90;999.90;;;;;;;;;;5087052;28;20044;-88
2023/11/10 02:10:19;;;;;;;1999.90;999.90;;;;;;;;;;5083575;28;20055;-89
2023/11/10 02:12:54;;;;;;;1999.90;999.90;;;;;;;;;;5082946;28;20121;-89
2023/11/10 02:15:21;;;;;;;1999.90;999.90;;;;;;;;;;5080994;28;20078;-88
2023/11/10 02:17:48;;;;;;;1999.90;999.90;;;;;;;;;;5082316;28;20137;-88
2023/11/10 02:20:14;;;;;;;1999.90;999.90;;;;;;;;;;5085097;28;20463;-89
2023/11/10 02:22:42;;;;;;;1999.90;999.90;;;;;;;;;;5080881;28;20048;-88
2023/11/10 02:25:13;;;;;;;1999.90;999.90;;;;;;;;;;5081730;28;20044;-87
2023/11/10 02:27:40;;;;;;;1999.90;999.90;;;;;;;;;;5087912;28;20050;-89
2023/11/10 02:30:08;;;;;;;1999.90;999.90;;;;;;;;;;5078795;28;20052;-88
2023/11/10 02:32:34;;;;;;;1999.90;999.90;;;;;;;;;;5077365;28;20121;-88
2023/11/10 02:35:01;;;;;;;1999.90;999.90;;;;;;;;;;5081359;28;20051;-89
2023/11/10 02:37:28;;;;;;;1999.90;999.90;;;;;;;;;;5083213;28;20052;-90
2023/11/10 02:39:54;;;;;;;1999.90;999.90;;;;;;;;;;5079631;28;20067;-88
2023/11/10 02:42:22;;;;;;;1999.90;999.90;;;;;;;;;;5076342;28;20048;-88
2023/11/10 02:44:49;;;;;;;1999.90;999.90;;;;;;;;;;5085674;28;20057;-89
2023/11/10 02:47:15;;;;;;;1999.90;999.90;;;;;;;;;;5078317;28;20072;-90
2023/11/10 02:49:42;;;;;;;1999.90;999.90;;;;;;;;;;5078032;28;20059;-89
2023/11/10 02:52:08;;;;;;;1999.90;999.90;;;;;;;;;;5085031;28;20062;-88
2023/11/10 02:54:35;;;;;;;1999.90;999.90;;;;;;;;;;5080022;28;20080;-88
2023/11/10 02:57:01;;;;;;;1999.90;999.90;;;;;;;;;;5082655;28;20059;-89
2023/11/10 02:59:29;;;;;;;1999.90;999.90;;;;;;;;;;5083585;28;20033;-89
2023/11/10 03:01:56;;;;;;;1999.90;999.90;;;;;;;;;;5082728;28;20446;-89
2023/11/10 03:04:22;;;;;;;1999.90;999.90;;;;;;;;;;5077683;28;20106;-91
2023/11/10 03:06:49;;;;;;;1999.90;999.90;;;;;;;;;;5080276;28;20040;-90
2023/11/10 03:09:16;;;;;;;1999.90;999.90;;;;;;;;;;5084297;28;20572;-88
2023/11/10 03:11:42;;;;;;;1999.90;999.90;;;;;;;;;;5080648;28;20397;-89
2023/11/10 03:14:09;;;;;;;1999.90;999.90;;;;;;;;;;5083198;28;20479;-87
2023/11/10 03:16:37;;;;;;;1999.90;999.90;;;;;;;;;;5080867;28;20158;-89
2023/11/10 03:19:04;;;;;;;1999.90;999.90;;;;;;;;;;5073834;28;20485;-89
2023/11/10 03:21:30;;;;;;;1999.90;999.90;;;;;;;;;;5084310;28;20059;-90
2023/11/10 03:23:57;;;;;;;1999.90;999.90;;;;;;;;;;5082573;28;20051;-90
2023/11/10 03:26:23;;;;;;;1999.90;999.90;;;;;;;;;;5090037;28;20047;-90
2023/11/10 03:28:50;;;;;;;1999.90;999.90;;;;;;;;;;5092882;28;20044;-87
2023/11/10 03:31:17;;;;;;;1999.90;999.90;;;;;;;;;;5093316;28;20613;-89
2023/11/10 03:33:46;;;;;;;1999.90;999.90;;;;;;;;;;5090462;28;20047;-88
2023/11/10 03:36:13;;;;;;;1999.90;999.90;;;;;;;;;;5092283;28;20059;-88
2023/11/10 03:38:40;;;;;;;1999.90;999.90;;;;;;;;;;5093139;28;20058;-87
2023/11/10 03:41:07;;;;;;;1999.90;999.90;;;;;;;;;;5078569;28;20307;-90
2023/11/10 03:43:33;;;;;;;1999.90;999.90;;;;;;;;;;5090614;28;20101;-87
2023/11/10 03:46:00;;;;;;;1999.90;999.90;;;;;;;;;;5080478;28;20131;-89
2023/11/10 03:48:27;;;;;;;1999.90;999.90;;;;;;;;;;5074706;28;20132;-89
2023/11/10 03:50:55;;;;;;;1999.90;999.90;;;;;;;;;;5082186;28;20040;-87
2023/11/10 03:53:22;;;;;;;1999.90;999.90;;;;;;;;;;5079932;28;20460;-88
2023/11/10 03:55:49;;;;;;;1999.90;999.90;;;;;;;;;;5080551;28;20063;-89
2023/11/10 03:58:15;;;;;;;1999.90;999.90;;;;;;;;;;5082889;28;20139;-89
2023/11/10 04:00:42;;;;;;;1999.90;999.90;;;;;;;;;;5079912;28;20048;-89
2023/11/10 04:03:09;;;;;;;1999.90;999.90;;;;;;;;;;5079589;28;20048;-89
2023/11/10 04:05:36;;;;;;;1999.90;999.90;;;;;;;;;;5081838;28;20062;-88
2023/11/10 04:08:04;;;;;;;1999.90;999.90;;;;;;;;;;5083647;28;20045;-89
2023/11/10 04:10:32;;;;;;;1999.90;999.90;;;;;;;;;;5081455;28;20056;-88
2023/11/10 04:12:58;;;;;;;1999.90;999.90;;;;;;;;;;5077031;28;20112;-88
2023/11/10 04:15:26;;;;;;;1999.90;999.90;;;;;;;;;;5082143;28;20045;-88
2023/11/10 04:17:52;;;;;;;1999.90;999.90;;;;;;;;;;5081589;28;20040;-90
2023/11/10 04:20:19;;;;;;;1999.90;999.90;;;;;;;;;;5081133;28;20036;-88
2023/11/10 04:22:44;;;;;;;1999.90;999.90;;;;;;;;;;5079645;28;20420;-88
2023/11/10 04:25:12;;;;;;;1999.90;999.90;;;;;;;;;;5080421;28;20045;-88
2023/11/10 04:27:41;;;;;;;1999.90;999.90;;;;;;;;;;5082431;28;20089;-90
2023/11/10 04:30:09;;;;;;;1999.90;999.90;;;;;;;;;;5074892;28;20098;-90
2023/11/10 04:32:36;;;;;;;1999.90;999.90;;;;;;;;;;5080105;28;20044;-89
2023/11/10 04:35:02;;;;;;;1999.90;999.90;;;;;;;;;;5080921;28;20060;-88
2023/11/10 04:37:29;;;;;;;1999.90;999.90;;;;;;;;;;5076116;28;20097;-89
2023/11/10 04:39:56;;;;;;;1999.90;999.90;;;;;;;;;;5078887;28;20528;-91
2023/11/10 04:42:23;;;;;;;1999.90;999.90;;;;;;;;;;5077810;28;20052;-91
2023/11/10 04:44:50;;;;;;;1999.90;999.90;;;;;;;;;;5079559;28;20048;-90
2023/11/10 04:47:17;;;;;;;1999.90;999.90;;;;;;;;;;5076055;28;20381;-90
2023/11/10 04:49:43;;;;;;;1999.90;999.90;;;;;;;;;;5077350;28;20454;-90
2023/11/10 04:52:10;;;;;;;1999.90;999.90;;;;;;;;;;5080716;28;20105;-88
2023/11/10 04:54:39;;;;;;;1999.90;999.90;;;;;;;;;;5077241;28;20053;-88
2023/11/10 04:57:05;;;;;;;1999.90;999.90;;;;;;;;;;5081390;28;20135;-90
2023/11/10 04:59:34;;;;;;;1999.90;999.90;;;;;;;;;;5076616;28;20048;-88
2023/11/10 05:02:00;;;;;;;1999.90;999.90;;;;;;;;;;5077903;28;20048;-88
2023/11/10 05:04:27;;;;;;;1999.90;999.90;;;;;;;;;;5074697;28;20055;-88
2023/11/10 05:06:53;;;;;;;1999.90;999.90;;;;;;;;;;5083914;28;20071;-88
2023/11/10 05:09:22;;;;;;;1999.90;999.90;;;;;;;;;;5083505;28;20040;-88
2023/11/10 05:11:49;;;;;;;1999.90;999.90;;;;;;;;;;5082494;28;20075;-89
2023/11/10 05:14:15;;;;;;;1999.90;999.90;;;;;;;;;;5083665;28;20288;-88
2023/11/10 05:16:43;;;;;;;1999.90;999.90;;;;;;;;;;5083961;28;20045;-88
2023/11/10 05:19:10;;;;;;;1999.90;999.90;;;;;;;;;;5089528;28;20053;-89
2023/11/10 05:21:36;;;;;;;1999.90;999.90;;;;;;;;;;5089569;28;20398;-89
2023/11/10 05:24:03;;;;;;;1999.90;999.90;;;;;;;;;;5083426;28;20060;-86
2023/11/10 05:26:30;;;;;;;1999.90;999.90;;;;;;;;;;5082764;28;20051;-89
2023/11/10 05:28:56;;;;;;;1999.90;999.90;;;;;;;;;;5084840;28;20392;-87
2023/11/10 05:31:23;;;;;;;1999.90;999.90;;;;;;;;;;5083311;28;20480;-87
2023/11/10 05:33:51;;;;;;;1999.90;999.90;;;;;;;;;;5089603;28;20040;-89
2023/11/10 05:36:18;;;;;;;1999.90;999.90;;;;;;;;;;5083345;28;20048;-89
2023/11/10 05:38:44;;;;;;;1999.90;999.90;;;;;;;;;;5081788;28;20420;-90
2023/11/10 05:41:11;;;;;;;1999.90;999.90;;;;;;;;;;5084408;28;20049;-87
2023/11/10 05:43:38;;;;;;;1999.90;999.90;;;;;;;;;;5085291;28;20467;-88
2023/11/10 05:46:05;;;;;;;1999.90;999.90;;;;;;;;;;5081318;28;20075;-91
2023/11/10 05:48:31;;;;;;;1999.90;999.90;;;;;;;;;;5082876;28;20056;-90
2023/11/10 05:51:03;;;;;;;1999.90;999.90;;;;;;;;;;5082378;28;20044;-88
2023/11/10 05:53:30;;;;;;;1999.90;999.90;;;;;;;;;;5080676;28;20064;-87
2023/11/10 05:55:57;;;;;;;1999.90;999.90;;;;;;;;;;5084451;28;20063;-90
2023/11/10 05:58:24;;;;;;;1999.90;999.90;;;;;;;;;;5086131;28;20055;-90
2023/11/10 06:00:51;;;;;;;1999.90;999.90;;;;;;;;;;5089934;28;20056;-88
2023/11/10 06:03:17;;;;;;;1999.90;999.90;;;;;;;;;;5092286;28;20075;-90
2023/11/10 06:05:45;;;;;;;1999.90;999.90;;;;;;;;;;5092168;28;20060;-88
2023/11/10 06:08:14;;;;;;;1999.90;999.90;;;;;;;;;;5093183;28;20058;-88
2023/11/10 06:10:41;;;;;;;1999.90;999.90;;;;;;;;;;5087372;28;20047;-88
2023/11/10 06:13:09;;;;;;;1999.90;999.90;;;;;;;;;;5085529;28;20054;-88
2023/11/10 06:15:36;;;;;;;1999.90;999.90;;;;;;;;;;5082978;28;20053;-88
2023/11/10 06:18:02;;;;;;;1999.90;999.90;;;;;;;;;;5085835;28;20054;-88
2023/11/10 06:20:29;;;;;;;1999.90;999.90;;;;;;;;;;5080958;28;20056;-88
2023/11/10 06:22:56;;;;;;;1999.90;999.90;;;;;;;;;;5077123;28;20052;-89
2023/11/10 06:25:25;;;;;;;1999.90;999.90;;;;;;;;;;5082326;28;20051;-88
2023/11/10 06:27:52;;;;;;;1999.90;999.90;;;;;;;;;;5072927;28;20040;-86
2023/11/10 06:30:19;;;;;;;1999.90;999.90;;;;;;;;;;5087929;28;20052;-89
2023/11/10 06:32:46;;;;;;;1999.90;999.90;;;;;;;;;;5080289;28;20044;-89
2023/11/10 06:35:12;;;;;;;1999.90;999.90;;;;;;;;;;5081795;28;20049;-88
2023/11/10 06:37:40;;;;;;;1999.90;999.90;;;;;;;;;;5085024;28;20047;-88
2023/11/10 06:40:08;;;;;;;1999.90;999.90;;;;;;;;;;5088289;28;20058;-90
2023/11/10 06:42:36;;;;;;;1999.90;999.90;;;;;;;;;;5083157;28;20059;-87
2023/11/10 06:45:04;;;;;;;1999.90;999.90;;;;;;;;;;5083956;28;20062;-89
2023/11/10 06:47:30;;;;;;;1999.90;999.90;;;;;;;;;;5081790;28;20079;-89
2023/11/10 06:49:57;;;;;;;1999.90;999.90;;;;;;;;;;5080658;28;20048;-88
2023/11/10 06:52:24;;;;;;;1999.90;999.90;;;;;;;;;;5085366;28;20051;-89
2023/11/10 06:54:50;;;;;;;1999.90;999.90;;;;;;;;;;5081042;28;20146;-87
2023/11/10 06:57:17;;;;;;;1999.90;999.90;;;;;;;;;;5082671;28;20053;-88
2023/11/10 06:59:45;;;;;;;1999.90;999.90;;;;;;;;;;5081941;28;20070;-91
2023/11/10 07:02:12;;;;;;;1999.90;999.90;;;;;;;;;;5080498;28;20048;-88
2023/11/10 07:04:39;;;;;;;1999.90;999.90;;;;;;;;;;5083199;28;20059;-88
2023/11/10 07:07:06;;;;;;;1999.90;999.90;;;;;;;;;;5083239;28;20086;-87
2023/11/10 07:09:32;;;;;;;1999.90;999.90;;;;;;;;;;5081453;28;20563;-89
2023/11/10 07:11:59;;;;;;;1999.90;999.90;;;;;;;;;;5081108;28;20044;-90
2023/11/10 07:14:25;;;;;;;1999.90;999.90;;;;;;;;;;5079489;28;20045;-87
2023/11/10 07:16:53;;;;;;;1999.90;999.90;;;;;;;;;;5078619;28;20048;-87
2023/11/10 07:19:20;;;;;;;1999.90;999.90;;;;;;;;;;5082205;28;20049;-92
2023/11/10 07:21:47;;;;;;;1999.90;999.90;;;;;;;;;;5090929;28;20112;-88
2023/11/10 07:24:13;;;;;;;1999.90;999.90;;;;;;;;;;5083752;28;20048;-88
2023/11/10 07:26:40;;;;;;;1999.90;999.90;;;;;;;;;;5080468;28;20499;-90
2023/11/10 07:29:06;;;;;;;1999.90;999.90;;;;;;;;;;5079022;28;20048;-87
2023/11/10 07:31:33;;;;;;;1999.90;999.90;;;;;;;;;;5084100;28;20043;-87
2023/11/10 07:34:01;;;;;;;1999.90;999.90;;;;;;;;;;5080962;28;20044;-88
2023/11/10 07:36:27;;;;;;;1999.90;999.90;;;;;;;;;;5077408;28;20047;-90
2023/11/10 07:38:54;;;;;;;1999.90;999.90;;;;;;;;;;5079951;28;20438;-87
2023/11/10 07:41:21;;;;;;;1999.90;999.90;;;;;;;;;;5080134;28;20410;-88
2023/11/10 07:43:47;;;;;;;1999.90;999.90;;;;;;;;;;5078679;28;20046;-89
2023/11/10 07:46:15;;;;;;;1999.90;999.90;;;;;;;;;;5079121;28;20061;-87
2023/11/10 07:48:42;;;;;;;1999.90;999.90;;;;;;;;;;5080330;28;20048;-88
2023/11/10 07:51:10;;;;;;;1999.90;999.90;;;;;;;;;;5084044;28;20040;-88
2023/11/10 07:53:37;;;;;;;1999.90;999.90;;;;;;;;;;5081663;28;20535;-86
2023/11/10 07:56:04;;;;;;;1999.90;999.90;;;;;;;;;;5080278;28;20048;-88
2023/11/10 07:58:31;;;;;;;1999.90;999.90;;;;;;;;;;5080850;28;20052;-87
2023/11/10 08:00:57;;;;;;;1999.90;999.90;;;;;;;;;;5079631;28;20075;-89
2023/11/10 08:03:25;;;;;;;1999.90;999.90;;;;;;;;;;5081801;28;20044;-89
2023/11/10 08:05:53;;;;;;;1999.90;999.90;;;;;;;;;;5081504;28;20147;-87
2023/11/10 08:08:21;;;;;;;1999.90;999.90;;;;;;;;;;5079905;28;20052;-89
2023/11/10 08:10:47;;;;;;;1999.90;999.90;;;;;;;;;;5077171;28;20540;-87
2023/11/10 08:13:14;;;;;;;1999.90;999.90;;;;;;;;;;5085497;28;20105;-88
2023/11/10 08:15:43;;;;;;;1999.90;999.90;;;;;;;;;;5084233;28;20054;-89
2023/11/10 08:18:11;;;;;;;1999.90;999.90;;;;;;;;;;5084766;28;20060;-89
2023/11/10 08:20:39;;;;;;;1999.90;999.90;;;;;;;;;;5083431;28;20471;-90
2023/11/10 08:23:05;;;;;;;1999.90;999.90;;;;;;;;;;5083414;28;20056;-91
2023/11/10 08:25:33;;;;;;;1999.90;999.90;;;;;;;;;;5081582;28;20055;-89
2023/11/10 08:28:00;;;;;;;1999.90;999.90;;;;;;;;;;5087814;28;20047;-92
2023/11/10 08:30:26;;;;;;;1999.90;999.90;;;;;;;;;;5086522;28;20418;-89
2023/11/10 08:32:54;;;;;;;1999.90;999.90;;;;;;;;;;5084374;28;20048;-87
2023/11/10 08:35:20;;;;;;;1999.90;999.90;;;;;;;;;;5087812;28;20045;-90
2023/11/10 08:37:48;;;;;;;1999.90;999.90;;;;;;;;;;5088494;28;20425;-89
2023/11/10 08:40:14;;;;;;;1999.90;999.90;;;;;;;;;;5085210;28;20056;-90
2023/11/10 08:42:42;;;;;;;1999.90;999.90;;;;;;;;;;5086128;28;20052;-88
2023/11/10 08:45:10;;;;;;;1999.90;999.90;;;;;;;;;;5085036;28;20056;-95
2023/11/10 08:47:37;;;;;;;1999.90;999.90;;;;;;;;;;5086605;28;20049;-89
2023/11/10 08:50:05;;;;;;;1999.90;999.90;;;;;;;;;;5085412;28;20085;-91
2023/11/10 08:52:32;;;;;;;1999.90;999.90;;;;;;;;;;5078621;28;20056;-91
2023/11/10 08:54:58;;;;;;;1999.90;999.90;;;;;;;;;;5092263;28;20039;-91
2023/11/10 08:57:25;;;;;;;1999.90;999.90;;;;;;;;;;5088739;28;20113;-92
2023/11/10 08:59:53;;;;;;;1999.90;999.90;;;;;;;;;;5082411;28;20049;-90
2023/11/10 09:02:19;;;;;;;1999.90;999.90;;;;;;;;;;5083981;28;20048;-93
2023/11/10 09:04:48;;;;;;;1999.90;999.90;;;;;;;;;;5082507;28;20055;-90
2023/11/10 09:07:15;;;;;;;1999.90;999.90;;;;;;;;;;5087515;22;20094;-83
2023/11/10 09:09:41;;;;;;;1999.90;999.90;;;;;;;;;;5036174;28;20124;-84
2023/11/10 09:12:08;;;;;;;1999.90;999.90;;;;;;;;;;5059976;28;20079;-84
2023/11/10 09:14:35;;;;;;;1999.90;999.90;;;;;;;;;;5058092;28;20076;-85
2023/11/10 09:17:03;;;;;;;1999.90;999.90;;;;;;;;;;5057121;28;20056;-84
2023/11/10 09:19:30;;;;;;;1999.90;999.90;;;;;;;;;;5058325;28;20406;-85
2023/11/10 09:21:58;;;;;;;1999.90;999.90;;;;;;;;;;5037411;28;20048;-84
2023/11/10 09:24:26;;;;;;;1999.90;999.90;;;;;;;;;;5024737;28;20064;-84
2023/11/10 09:26:53;;;;;;;1999.90;999.90;;;;;;;;;;5055359;28;20174;-85
2023/11/10 09:29:19;;;;;;;1999.90;999.90;;;;;;;;;;5038776;28;20048;-85
2023/11/10 09:31:47;;;;;;;1999.90;999.90;;;;;;;;;;5041913;28;20107;-83
2023/11/10 09:34:15;;;;;;;1999.90;999.90;;;;;;;;;;5055899;28;20809;-82
2023/11/10 09:36:42;;;;;;;1999.90;999.90;;;;;;;;;;5041819;28;20495;-83
2023/11/10 09:39:10;;;;;;;1999.90;999.90;;;;;;;;;;5036976;28;20453;-82
2023/11/10 09:41:38;;;;;;;1999.90;999.90;;;;;;;;;;5057204;28;20056;-82
2023/11/10 09:44:07;;;;;;;1999.90;999.90;;;;;;;;;;5058570;28;20102;-82
2023/11/10 09:46:34;;;;;;;1999.90;999.90;;;;;;;;;;5057079;28;20057;-81
2023/11/10 09:49:04;;;;;;;1999.90;999.90;;;;;;;;;;5056722;28;20055;-82
2023/11/10 09:51:34;;;;;;;1999.90;999.90;;;;;;;;;;5056189;28;20057;-82
2023/11/10 09:54:04;;;;;;;1999.90;999.90;;;;;;;;;;5043770;28;20045;-83
2023/11/10 09:56:35;;;;;;;1999.90;999.90;;;;;;;;;;5058261;28;20059;-82
2023/11/10 09:59:04;;;;;;;1999.90;999.90;;;;;;;;;;5060992;28;20052;-82
2023/11/10 10:01:31;;;;;;;1999.90;999.90;;;;;;;;;;5059347;28;20519;-81
2023/11/10 10:03:57;;;;;;;1999.90;999.90;;;;;;;;;;5061552;28;20516;-82
2023/11/10 10:06:25;;;;;;;1999.90;999.90;;;;;;;;;;5044134;28;20135;-82
2023/11/10 10:08:55;;;;;;;1999.90;999.90;;;;;;;;;;5062534;28;20059;-82
2023/11/10 10:11:23;;;;;;;1999.90;999.90;;;;;;;;;;5058682;28;20510;-83
2023/11/10 10:13:50;;;;;;;1999.90;999.90;;;;;;;;;;5045168;28;20053;-83
2023/11/10 10:16:17;;;;;;;1999.90;999.90;;;;;;;;;;5060636;28;20064;-82
2023/11/10 10:18:46;;;;;;;1999.90;999.90;;;;;;;;;;5062458;28;20044;-82
2023/11/10 10:21:15;;;;;;;1999.90;999.90;;;;;;;;;;5050653;28;20049;-83
2023/11/10 10:23:44;;;;;;;1999.90;999.90;;;;;;;;;;5043455;28;20801;-84
2023/11/10 10:26:15;;;;;;;1999.90;999.90;;;;;;;;;;5060473;28;20079;-84
2023/11/10 10:28:42;;;;;;;1999.90;999.90;;;;;;;;;;5063142;28;20561;-84
2023/11/10 10:31:11;;;;;;;1999.90;999.90;;;;;;;;;;5044262;28;20437;-85
2023/11/10 10:33:37;;;;;;;1999.90;999.90;;;;;;;;;;5061622;28;20076;-84
2023/11/10 10:36:06;;;;;;;1999.90;999.90;;;;;;;;;;5055106;28;20053;-84
2023/11/10 10:38:34;;;;;;;1999.90;999.90;;;;;;;;;;5060590;28;20083;-84
2023/11/10 10:41:03;;;;;;;1999.90;999.90;;;;;;;;;;5060943;28;20060;-84
2023/11/10 10:43:35;;;;;;;1999.90;999.90;;;;;;;;;;5040120;28;20053;-83
2023/11/10 10:46:03;;;;;;;1999.90;999.90;;;;;;;;;;5057879;28;20064;-85
2023/11/10 10:48:30;;;;;;;1999.90;999.90;;;;;;;;;;5058022;28;20140;-85
2023/11/10 10:50:59;;;;;;;1999.90;999.90;;;;;;;;;;5063027;28;20082;-86
2023/11/10 10:53:25;;;;;;;1999.90;999.90;;;;;;;;;;5055292;28;20060;-85
2023/11/10 10:55:53;;;;;;;1999.90;999.90;;;;;;;;;;5061792;28;20059;-84
2023/11/10 10:58:21;;;;;;;1999.90;999.90;;;;;;;;;;5065699;28;20072;-84
2023/11/10 11:00:50;;;;;;;1999.90;999.90;;;;;;;;;;5059953;28;20114;-84
2023/11/10 11:03:30;;;;;;;1999.90;999.90;;;;;;;;;;5055090;28;20609;-83
2023/11/10 11:06:09;;;;;;;1999.90;999.90;;;;;;;;;;5043708;28;20057;-85
2023/11/10 11:08:48;;;;;;;1999.90;999.90;;;;;;;;;;5041529;28;20052;-85
2023/11/10 11:11:38;;;;;;;1999.90;999.90;;;;;;;;;;5058519;28;20048;-85
2023/11/10 11:14:26;;;;;;;1999.90;999.90;;;;;;;;;;5045646;28;20060;-84
2023/11/10 11:17:17;;;;;;;1999.90;999.90;;;;;;;;;;5056323;28;20057;-85
2023/11/10 11:19:44;;;;;;;1999.90;999.90;;;;;;;;;;5059611;28;20083;-84
2023/11/10 11:22:11;;;;;;;1999.90;999.90;;;;;;;;;;5036921;28;20045;-85
2023/11/10 11:24:40;;;;;;;1999.90;999.90;;;;;;;;;;5060323;28;20060;-85
2023/11/10 11:27:07;;;;;;;1999.90;999.90;;;;;;;;;;5040820;28;20275;-85
2023/11/10 11:29:39;;;;;;;1999.90;999.90;;;;;;;;;;5040775;28;20520;-85
2023/11/10 11:32:13;;;;;;;1999.90;999.90;;;;;;;;;;5042493;28;20057;-84
2023/11/10 11:34:50;;;;;;;1999.90;999.90;;;;;;;;;;5057360;28;20111;-85
2023/11/10 11:37:17;;;;;;;1999.90;999.90;;;;;;;;;;5057932;28;20136;-85
2023/11/10 11:39:43;;;;;;;1999.90;999.90;;;;;;;;;;5071814;28;20025;-82
2023/11/10 11:42:10;;;;;;;1999.90;999.90;;;;;;;;;;5062539;28;20061;-82
2023/11/10 11:44:38;;;;;;;1999.90;999.90;;;;;;;;;;5070261;28;20052;-84
2023/11/10 11:47:09;;;;;;;1999.90;999.90;;;;;;;;;;5064827;28;20059;-86
2023/11/10 11:49:36;;;;;;;1999.90;999.90;;;;;;;;;;5054800;28;20049;-86
2023/11/10 11:52:04;;;;;;;1999.90;999.90;;;;;;;;;;5044880;28;20478;-86
2023/11/10 11:54:31;;;;;;;1999.90;999.90;;;;;;;;;;5059214;28;20082;-85
2023/11/10 11:56:59;;;;;;;1999.90;999.90;;;;;;;;;;5045011;28;20102;-87
2023/11/10 11:59:26;;;;;;;1999.90;999.90;;;;;;;;;;5060363;28;20059;-85
2023/11/10 12:01:55;;;;;;;1999.90;999.90;;;;;;;;;;5058822;28;20056;-84
2023/11/10 12:04:24;;;;;;;1999.90;999.90;;;;;;;;;;5043474;28;20053;-86
2023/11/10 12:06:52;;;;;;;1999.90;999.90;;;;;;;;;;5059066;28;20110;-85
2023/11/10 12:09:18;;;;;;;1999.90;999.90;;;;;;;;;;5057545;28;20049;-85
2023/11/10 12:11:47;;;;;;;1999.90;999.90;;;;;;;;;;5058596;28;20052;-84
2023/11/10 12:14:15;;;;;;;1999.90;999.90;;;;;;;;;;5059229;28;20079;-84
2023/11/10 12:16:43;;;;;;;1999.90;999.90;;;;;;;;;;5026681;28;20049;-83
2023/11/10 12:19:12;;;;;;;1999.90;999.90;;;;;;;;;;5056628;28;20132;-84
2023/11/10 12:21:41;;;;;;;1999.90;999.90;;;;;;;;;;5058582;28;20041;-85
2023/11/10 12:24:10;;;;;;;1999.90;999.90;;;;;;;;;;5061503;28;20445;-85
2023/11/10 12:26:38;;;;;;;1999.90;999.90;;;;;;;;;;5016713;28;20780;-85
2023/11/10 12:29:05;;;;;;;1999.90;999.90;;;;;;;;;;5060723;28;20060;-84
2023/11/10 12:31:32;;;;;;;1999.90;999.90;;;;;;;;;;5049112;28;20166;-85
2023/11/10 12:34:04;;;;;;;1999.90;999.90;;;;;;;;;;5049125;28;20045;-84
2023/11/10 12:36:32;;;;;;;1999.90;999.90;;;;;;;;;;5066520;28;20053;-84
2023/11/10 12:39:09;;;;;;;1999.90;999.90;;;;;;;;;;5050927;28;20044;-83
2023/11/10 12:41:39;;;;;;;1999.90;999.90;;;;;;;;;;5068739;28;20641;-83
2023/11/10 12:44:06;;;;;;;1999.90;999.90;;;;;;;;;;5061790;28;20060;-85
2023/11/10 12:46:32;;;;;;;1999.90;999.90;;;;;;;;;;5060323;28;20048;-83
2023/11/10 12:48:59;;;;;;;1999.90;999.90;;;;;;;;;;5057024;28;20055;-84
2023/11/10 12:51:29;;;;;;;1999.90;999.90;;;;;;;;;;5048193;28;20110;-85
2023/11/10 12:54:05;;;;;;;1999.90;999.90;;;;;;;;;;5057472;28;20657;-84
2023/11/10 12:56:32;;;;;;;1999.90;999.90;;;;;;;;;;5041039;28;20048;-83
2023/11/10 12:59:00;;;;;;;1999.90;999.90;;;;;;;;;;5056265;28;20045;-83
2023/11/10 13:01:26;;;;;;;1999.90;999.90;;;;;;;;;;5055673;28;20052;-84
2023/11/10 13:03:53;;;;;;;1999.90;999.90;;;;;;;;;;5059159;28;20059;-84
2023/11/10 13:06:20;;;;;;;1999.90;999.90;;;;;;;;;;5038823;28;20052;-83
2023/11/10 13:08:47;;;;;;;1999.90;999.90;;;;;;;;;;5020363;28;20120;-84
2023/11/10 13:11:15;;;;;;;1999.90;999.90;;;;;;;;;;5016506;28;20046;-81
2023/11/10 13:13:42;;;;;;;1999.90;999.90;;;;;;;;;;5015196;28;20049;-83
2023/11/10 13:16:09;;;;;;;1999.90;999.90;;;;;;;;;;5015657;28;20064;-83
2023/11/10 13:18:36;;;;;;;1999.90;999.90;;;;;;;;;;5017507;28;20045;-81
2023/11/10 13:21:03;;;;;;;1999.90;999.90;;;;;;;;;;5016927;28;20049;-82
2023/11/10 13:23:31;;;;;;;1999.90;999.90;;;;;;;;;;5019860;28;20049;-83
2023/11/10 13:25:58;;;;;;;1999.90;999.90;;;;;;;;;;5021556;28;20511;-83
2023/11/10 13:28:26;;;;;;;1999.90;999.90;;;;;;;;;;5020059;28;20085;-81
2023/11/10 13:30:54;;;;;;;1999.90;999.90;;;;;;;;;;5020783;28;20046;-82
2023/11/10 13:33:22;;;;;;;1999.90;999.90;;;;;;;;;;5021850;28;20065;-82
2023/11/10 13:35:50;;;;;;;1999.90;999.90;;;;;;;;;;5035806;28;20049;-80
2023/11/10 13:38:18;;;;;;;1999.90;999.90;;;;;;;;;;5010788;28;20091;-82
2023/11/10 13:40:46;;;;;;;1999.90;999.90;;;;;;;;;;5023377;28;20548;-81
2023/11/10 13:43:16;;;;;;;1999.90;999.90;;;;;;;;;;5023351;28;20562;-81